Terminal Aerodrome Forecast
Issued by NWS

Home | Current Version | Previous Version | Text Only | Print | Product List | Glossary On
Versions: 1 2 3 4 5 6 7 8 9 10 11 12 13 14 15
000
FTUS44 KBMX 221100 CCA
TAFEET
TAF COR
KEET 221155Z 2212/2312 00000KT 6SM BR SKC
     FM221400 30005KT P6SM SCT050
     FM230100 00000KT P6SM SKC=

USA.gov is the U.S. government's official web portal to all federal, state and local government web resources and services.